createdAt,value
2018-07-28T00:00:20.456Z,24.60
2018-07-28T00:02:49.486Z,24.60
2018-07-28T00:05:17.952Z,24.48
2018-07-28T00:07:46.566Z,24.47
2018-07-28T00:10:14.818Z,24.43
2018-07-28T00:12:44.045Z,24.37
2018-07-28T00:15:12.940Z,24.36
2018-07-28T00:17:42.145Z,24.57
2018-07-28T00:20:11.427Z,24.71
2018-07-28T00:22:40.022Z,24.64
2018-07-28T00:25:11.192Z,24.62
2018-07-28T00:27:39.537Z,24.51
2018-07-28T00:30:10.868Z,24.56
2018-07-28T00:32:39.259Z,24.51
2018-07-28T00:35:07.768Z,24.45
2018-07-28T00:37:36.478Z,24.45
2018-07-28T00:40:05.841Z,24.38
2018-07-28T00:42:34.852Z,24.35
2018-07-28T00:45:03.299Z,24.33
2018-07-28T00:47:31.493Z,24.30
2018-07-28T00:50:00.237Z,24.36
2018-07-28T00:52:28.476Z,24.38
2018-07-28T00:54:56.664Z,24.33
2018-07-28T00:57:24.836Z,24.31
2018-07-28T00:59:53.417Z,24.22
2018-07-28T01:02:21.660Z,24.16
2018-07-28T01:04:50.203Z,24.17
2018-07-28T01:07:18.384Z,24.20
2018-07-28T01:09:46.569Z,24.22
2018-07-28T01:12:15.547Z,24.28
2018-07-28T01:14:45.662Z,24.29
2018-07-28T01:17:14.521Z,24.24
2018-07-28T01:19:44.440Z,24.36
2018-07-28T01:22:12.985Z,24.44
2018-07-28T01:24:41.425Z,24.41
2018-07-28T01:27:09.697Z,24.40
2018-07-28T01:29:38.290Z,24.41
2018-07-28T01:32:07.366Z,24.43
2018-07-28T01:34:35.863Z,24.41
2018-07-28T01:37:04.708Z,24.37
2018-07-28T01:39:32.936Z,24.21
2018-07-28T01:42:01.142Z,24.17
2018-07-28T01:44:29.657Z,24.08
2018-07-28T01:46:57.857Z,24.09
2018-07-28T01:49:26.079Z,24.01
2018-07-28T01:51:54.647Z,24.01
2018-07-28T01:54:22.892Z,24.00
2018-07-28T01:56:51.438Z,23.87
2018-07-28T01:59:19.715Z,23.74
2018-07-28T02:01:48.269Z,23.58
2018-07-28T02:04:16.441Z,23.48
2018-07-28T02:06:45.353Z,23.46
2018-07-28T02:09:14.396Z,23.38
2018-07-28T02:11:42.918Z,23.40
2018-07-28T02:14:11.117Z,23.53
2018-07-28T02:16:39.317Z,23.57
2018-07-28T02:19:07.805Z,23.51
2018-07-28T02:21:36.912Z,23.47
2018-07-28T02:24:05.894Z,23.52
2018-07-28T02:26:34.370Z,23.49
2018-07-28T02:29:03.093Z,23.31
2018-07-28T02:31:31.313Z,23.24
2018-07-28T02:33:59.775Z,23.17
2018-07-28T02:36:28.335Z,23.22
2018-07-28T02:38:56.537Z,23.23
2018-07-28T02:41:24.860Z,23.26
2018-07-28T02:43:53.386Z,23.22
2018-07-28T02:46:22.226Z,23.06
2018-07-28T02:48:50.434Z,22.98
2018-07-28T02:51:18.635Z,22.92
2018-07-28T02:53:46.811Z,22.88
2018-07-28T02:56:15.273Z,22.86
2018-07-28T02:58:43.864Z,22.88
2018-07-28T03:01:12.318Z,22.79
2018-07-28T03:03:41.034Z,22.68
2018-07-28T03:06:09.566Z,22.61
2018-07-28T03:08:37.840Z,22.62
2018-07-28T03:11:06.421Z,22.55
2018-07-28T03:13:34.800Z,22.53
2018-07-28T03:16:09.191Z,22.48
2018-07-28T03:18:37.414Z,22.42
2018-07-28T03:21:05.875Z,22.36
2018-07-28T03:23:34.460Z,22.34
2018-07-28T03:26:03.247Z,22.31
2018-07-28T03:28:31.729Z,22.31
2018-07-28T03:31:00.328Z,22.31
2018-07-28T03:33:28.904Z,22.28
2018-07-28T03:35:57.124Z,22.25
2018-07-28T03:38:25.313Z,22.23
2018-07-28T03:40:53.874Z,22.24
2018-07-28T03:43:22.412Z,22.32
2018-07-28T03:45:50.666Z,22.28
2018-07-28T03:48:19.101Z,22.27
2018-07-28T03:50:47.644Z,22.25
2018-07-28T03:53:15.832Z,22.28
2018-07-28T03:55:44.025Z,22.32
2018-07-28T03:58:12.226Z,22.28
2018-07-28T04:00:40.500Z,22.23
2018-07-28T04:03:08.739Z,22.15
2018-07-28T04:05:37.212Z,22.17
2018-07-28T04:08:05.952Z,22.12
2018-07-28T04:10:34.152Z,22.06
2018-07-28T04:13:02.674Z,22.02
2018-07-28T04:15:31.229Z,22.02
2018-07-28T04:17:59.729Z,22.10
2018-07-28T04:20:27.934Z,22.14
2018-07-28T04:22:56.453Z,22.25
2018-07-28T04:25:24.995Z,22.36
2018-07-28T04:27:53.428Z,22.44
2018-07-28T04:30:21.955Z,22.52
2018-07-28T04:32:50.227Z,22.68
2018-07-28T04:35:18.443Z,22.89
2018-07-28T04:37:47.053Z,22.94
2018-07-28T04:40:15.278Z,23.16
2018-07-28T04:42:44.221Z,23.42
2018-07-28T04:45:12.432Z,23.51
2018-07-28T04:47:40.980Z,23.50
2018-07-28T04:50:09.167Z,23.46
2018-07-28T04:52:37.671Z,23.50
2018-07-28T04:55:06.673Z,23.66
2018-07-28T04:57:35.156Z,23.72
2018-07-28T05:00:04.305Z,23.83
2018-07-28T05:02:32.748Z,23.73
2018-07-28T05:05:01.476Z,23.73
2018-07-28T05:07:29.786Z,23.98
2018-07-28T05:09:57.912Z,23.97
2018-07-28T05:12:26.126Z,24.11
2018-07-28T05:14:55.003Z,24.15
2018-07-28T05:17:23.212Z,24.02
2018-07-28T05:19:51.954Z,23.97
2018-07-28T05:22:20.272Z,24.03
2018-07-28T05:24:48.733Z,24.00
2018-07-28T05:27:17.206Z,24.17
2018-07-28T05:29:45.808Z,24.41
2018-07-28T05:32:13.980Z,24.40
2018-07-28T05:34:42.693Z,24.49
2018-07-28T05:37:10.958Z,24.63
2018-07-28T05:39:39.138Z,24.42
2018-07-28T05:42:10.828Z,24.30
2018-07-28T05:44:39.315Z,24.33
2018-07-28T05:47:07.521Z,24.39
2018-07-28T05:49:36.108Z,24.57
2018-07-28T05:52:05.013Z,24.68
2018-07-28T05:54:33.212Z,24.76
2018-07-28T05:57:01.469Z,24.96
2018-07-28T05:59:29.682Z,25.03
2018-07-28T06:01:58.362Z,25.47
2018-07-28T06:04:26.556Z,25.39
2018-07-28T06:06:55.713Z,25.51
2018-07-28T06:09:24.090Z,25.83
2018-07-28T06:11:52.951Z,26.09
2018-07-28T06:14:21.194Z,26.27
2018-07-28T06:16:49.395Z,26.35
2018-07-28T06:19:17.961Z,26.82
2018-07-28T06:21:46.527Z,27.01
2018-07-28T06:24:15.015Z,26.90
2018-07-28T06:26:43.217Z,27.39
2018-07-28T06:29:11.458Z,27.67
2018-07-28T06:31:39.817Z,28.14
2018-07-28T06:34:08.327Z,28.23
2018-07-28T06:36:36.878Z,27.89
2018-07-28T06:39:10.194Z,28.20
2018-07-28T06:41:38.629Z,28.75
2018-07-28T06:44:07.358Z,29.18
2018-07-28T06:46:35.795Z,29.00
2018-07-28T06:49:04.249Z,29.21
2018-07-28T06:51:32.802Z,29.11
2018-07-28T06:54:01.011Z,29.17
2018-07-28T06:56:29.284Z,29.35
2018-07-28T06:58:58.048Z,28.85
2018-07-28T07:01:26.624Z,28.82
2018-07-28T07:03:55.617Z,28.80
2018-07-28T07:06:23.813Z,28.38
2018-07-28T07:08:52.493Z,28.02
2018-07-28T07:11:21.242Z,28.44
2018-07-28T07:13:49.424Z,28.52
2018-07-28T07:16:18.325Z,28.25
2018-07-28T07:18:46.526Z,28.09
2018-07-28T07:21:15.034Z,28.35
2018-07-28T07:23:43.222Z,28.41
2018-07-28T07:26:11.471Z,28.65
2018-07-28T07:28:41.927Z,28.53
2018-07-28T07:31:10.644Z,28.63
2018-07-28T07:33:39.996Z,28.65
2018-07-28T07:36:08.576Z,28.80
2018-07-28T07:38:37.753Z,28.49
2018-07-28T07:41:07.248Z,28.77
2018-07-28T07:43:36.126Z,28.92
2018-07-28T07:46:06.540Z,28.57
2018-07-28T07:48:35.080Z,28.48
2018-07-28T07:51:03.308Z,28.60
2018-07-28T07:53:31.788Z,28.75
2018-07-28T07:56:00.572Z,28.40
2018-07-28T07:58:31.580Z,28.14
2018-07-28T08:01:01.042Z,28.20
2018-07-28T08:03:29.568Z,27.70
2018-07-28T08:05:58.221Z,27.75
2018-07-28T08:08:27.717Z,27.81
2018-07-28T08:10:56.203Z,27.81
2018-07-28T08:13:24.768Z,27.58
2018-07-28T08:15:54.857Z,27.75
2018-07-28T08:18:23.335Z,27.98
2018-07-28T08:20:52.007Z,27.89
2018-07-28T08:23:20.332Z,28.11
2018-07-28T08:25:49.112Z,28.02
2018-07-28T08:28:18.136Z,28.01
2018-07-28T08:30:46.817Z,28.21
2018-07-28T08:33:15.110Z,28.31
2018-07-28T08:35:43.372Z,28.42
2018-07-28T08:38:12.725Z,28.37
2018-07-28T08:40:41.254Z,28.41
2018-07-28T08:43:09.729Z,28.76
2018-07-28T08:45:38.181Z,28.83
2018-07-28T08:48:06.544Z,29.20
2018-07-28T08:50:35.154Z,29.03
2018-07-28T08:53:04.285Z,28.97
2018-07-28T08:55:32.646Z,28.79
2018-07-28T08:58:03.851Z,29.26
2018-07-28T09:00:32.069Z,28.84
2018-07-28T09:03:00.274Z,28.78
2018-07-28T09:05:28.911Z,28.49
2018-07-28T09:07:57.216Z,28.78
2018-07-28T09:10:25.554Z,28.45
2018-07-28T09:12:53.873Z,29.03
2018-07-28T09:15:23.679Z,28.83
2018-07-28T09:17:51.984Z,29.29
2018-07-28T09:20:20.662Z,29.75
2018-07-28T09:22:52.499Z,29.98
2018-07-28T09:25:20.802Z,29.75
2018-07-28T09:27:49.241Z,29.73
2018-07-28T09:30:19.444Z,29.68
2018-07-28T09:32:48.093Z,30.33
2018-07-28T09:35:16.643Z,30.68
2018-07-28T09:37:45.427Z,30.59
2018-07-28T09:40:14.048Z,30.30
2018-07-28T09:42:43.336Z,30.36
2018-07-28T09:45:11.850Z,30.14
2018-07-28T09:47:40.872Z,30.20
2018-07-28T09:50:09.173Z,30.09
2018-07-28T09:52:38.700Z,29.31
2018-07-28T09:55:06.952Z,29.87
2018-07-28T09:57:35.249Z,30.19
2018-07-28T10:00:04.237Z,30.44
2018-07-28T10:02:33.039Z,30.59
2018-07-28T10:05:02.001Z,30.62
2018-07-28T10:07:30.860Z,30.48
2018-07-28T10:09:59.647Z,31.87
2018-07-28T10:12:28.482Z,31.88
2018-07-28T10:14:57.596Z,31.55
2018-07-28T10:17:26.287Z,32.01
2018-07-28T10:19:54.794Z,31.92
2018-07-28T10:22:23.718Z,31.74
2018-07-28T10:24:52.368Z,31.92
2018-07-28T10:27:20.868Z,32.45
2018-07-28T10:29:49.072Z,32.59
2018-07-28T10:32:17.374Z,32.84
2018-07-28T10:34:46.161Z,32.23
2018-07-28T10:37:14.732Z,32.23
2018-07-28T10:39:43.182Z,32.30
2018-07-28T10:42:11.889Z,32.49
2018-07-28T10:44:40.320Z,32.00
2018-07-28T10:47:09.108Z,32.32
2018-07-28T10:49:37.613Z,31.95
2018-07-28T10:52:05.823Z,31.80
2018-07-28T10:54:34.316Z,31.80
2018-07-28T10:57:03.066Z,32.24
2018-07-28T10:59:31.534Z,32.28
2018-07-28T11:01:59.990Z,31.63
2018-07-28T11:04:28.886Z,31.75
2018-07-28T11:06:57.076Z,32.39
2018-07-28T11:09:25.656Z,32.16
2018-07-28T11:11:54.830Z,32.82
2018-07-28T11:14:24.567Z,33.44
2018-07-28T11:16:53.357Z,33.34
2018-07-28T11:19:21.564Z,32.91
2018-07-28T11:21:50.114Z,33.13
2018-07-28T11:24:18.534Z,33.70
2018-07-28T11:26:47.038Z,33.80
2018-07-28T11:29:15.615Z,34.30
2018-07-28T11:32:01.020Z,34.08
2018-07-28T11:34:46.528Z,33.99
2018-07-28T11:37:48.621Z,33.89
2018-07-28T11:41:35.583Z,33.92
2018-07-28T11:44:20.905Z,33.36
2018-07-28T11:46:50.363Z,33.53
2018-07-28T11:49:19.238Z,33.21
2018-07-28T11:51:48.283Z,32.98
2018-07-28T11:54:17.040Z,32.52
2018-07-28T11:56:47.337Z,32.29
2018-07-28T11:59:16.416Z,32.64
2018-07-28T12:01:44.745Z,32.57
2018-07-28T12:04:13.254Z,32.62
2018-07-28T12:06:41.766Z,33.41
2018-07-28T12:09:09.997Z,34.19
2018-07-28T12:11:38.248Z,34.37
2018-07-28T12:14:06.942Z,34.45
2018-07-28T12:16:35.519Z,35.51
2018-07-28T12:19:04.446Z,35.74
2018-07-28T12:21:32.715Z,35.90
2018-07-28T12:24:01.177Z,35.26
2018-07-28T12:26:29.786Z,35.31
2018-07-28T12:28:57.957Z,35.45
2018-07-28T12:31:26.770Z,34.54
2018-07-28T12:33:55.284Z,33.24
2018-07-28T12:36:23.880Z,32.70
2018-07-28T12:38:53.374Z,32.26
2018-07-28T12:41:21.964Z,32.27
2018-07-28T12:43:50.586Z,31.76
2018-07-28T12:46:18.796Z,31.36
2018-07-28T12:48:47.300Z,31.21
2018-07-28T12:51:16.306Z,30.35
2018-07-28T12:53:44.573Z,29.62
2018-07-28T12:56:12.847Z,29.49
2018-07-28T12:58:41.326Z,28.75
2018-07-28T13:01:09.960Z,28.45
2018-07-28T13:03:38.496Z,28.31
2018-07-28T13:06:07.153Z,27.91
2018-07-28T13:08:35.377Z,28.06
2018-07-28T13:11:04.025Z,27.75
2018-07-28T13:13:32.350Z,27.82
2018-07-28T13:16:01.030Z,27.58
2018-07-28T13:18:29.322Z,28.02
2018-07-28T13:20:58.497Z,28.11
2018-07-28T13:23:27.316Z,27.78
2018-07-28T13:25:55.552Z,28.22
2018-07-28T13:28:24.938Z,29.60
2018-07-28T13:30:53.421Z,29.59
2018-07-28T13:33:22.375Z,29.12
2018-07-28T13:35:50.875Z,30.35
2018-07-28T13:38:19.132Z,29.98
2018-07-28T13:40:47.679Z,30.12
2018-07-28T13:43:16.160Z,30.41
2018-07-28T13:45:44.474Z,32.05
2018-07-28T13:48:12.717Z,32.49
2018-07-28T13:50:41.269Z,31.76
2018-07-28T13:53:09.438Z,31.04
2018-07-28T13:55:37.827Z,31.22
2018-07-28T13:58:06.005Z,30.84
2018-07-28T14:00:34.276Z,30.94
2018-07-28T14:03:02.708Z,31.17
2018-07-28T14:05:30.941Z,31.63
2018-07-28T14:07:59.420Z,31.96
2018-07-28T14:10:28.193Z,31.91
2018-07-28T14:12:56.829Z,31.54
2018-07-28T14:15:25.117Z,31.95
2018-07-28T14:17:53.378Z,31.04
2018-07-28T14:20:21.676Z,30.88
2018-07-28T14:22:50.172Z,31.32
2018-07-28T14:25:19.047Z,32.01
2018-07-28T14:27:47.244Z,32.02
2018-07-28T14:30:15.753Z,31.70
2018-07-28T14:32:43.963Z,31.41
2018-07-28T14:35:12.157Z,31.55
2018-07-28T14:37:40.371Z,32.20
2018-07-28T14:40:08.573Z,31.29
2018-07-28T14:42:36.772Z,31.17
2018-07-28T14:45:08.295Z,30.46
2018-07-28T14:47:36.484Z,30.50
2018-07-28T14:50:04.859Z,30.49
2018-07-28T14:52:33.205Z,30.64
2018-07-28T14:55:01.376Z,30.95
2018-07-28T14:57:29.753Z,31.66
2018-07-28T14:59:58.337Z,32.39
2018-07-28T15:02:26.515Z,33.85
2018-07-28T15:04:54.853Z,34.04
2018-07-28T15:07:23.090Z,33.54
2018-07-28T15:09:51.354Z,32.57
2018-07-28T15:12:19.561Z,31.97
2018-07-28T15:14:47.758Z,32.13
2018-07-28T15:17:15.946Z,32.25
2018-07-28T15:19:44.242Z,32.56
2018-07-28T15:22:13.227Z,33.25
2018-07-28T15:24:41.629Z,33.85
2018-07-28T15:27:09.856Z,33.49
2018-07-28T15:29:38.945Z,32.66
2018-07-28T15:32:07.311Z,31.71
2018-07-28T15:34:35.462Z,31.50
2018-07-28T15:37:03.687Z,31.41
2018-07-28T15:39:31.942Z,31.35
2018-07-28T15:42:00.489Z,31.34
2018-07-28T15:44:28.669Z,31.02
2018-07-28T15:46:57.157Z,30.24
2018-07-28T15:49:25.409Z,29.91
2018-07-28T15:51:53.660Z,29.59
2018-07-28T15:54:22.113Z,29.67
2018-07-28T15:56:50.493Z,29.55
2018-07-28T15:59:18.905Z,29.13
2018-07-28T16:01:47.087Z,29.06
2018-07-28T16:04:15.380Z,28.81
2018-07-28T16:06:43.617Z,28.81
2018-07-28T16:09:11.958Z,28.73
2018-07-28T16:11:40.280Z,28.93
2018-07-28T16:14:08.451Z,29.10
2018-07-28T16:16:36.935Z,29.05
2018-07-28T16:19:05.151Z,28.78
2018-07-28T16:21:33.913Z,28.58
2018-07-28T16:24:02.793Z,28.61
2018-07-28T16:26:31.055Z,28.45
2018-07-28T16:28:59.566Z,28.26
2018-07-28T16:31:27.755Z,28.33
2018-07-28T16:33:56.196Z,28.22
2018-07-28T16:36:24.508Z,28.24
2018-07-28T16:38:53.015Z,28.25
2018-07-28T16:41:21.598Z,28.14
2018-07-28T16:43:49.823Z,28.02
2018-07-28T16:46:18.022Z,28.02
2018-07-28T16:48:46.328Z,27.87
2018-07-28T16:51:14.860Z,28.08
2018-07-28T16:53:43.360Z,28.10
2018-07-28T16:56:11.600Z,28.02
2018-07-28T16:58:40.407Z,27.91
2018-07-28T17:01:08.937Z,27.77
2018-07-28T17:03:37.150Z,27.83
2018-07-28T17:06:06.216Z,27.84
2018-07-28T17:08:34.447Z,27.74
2018-07-28T17:11:02.808Z,27.82
2018-07-28T17:13:32.511Z,27.66
2018-07-28T17:16:00.806Z,27.68
2018-07-28T17:18:31.305Z,27.52
2018-07-28T17:20:59.760Z,27.82
2018-07-28T17:23:27.919Z,27.79
2018-07-28T17:25:56.254Z,27.76
2018-07-28T17:28:24.837Z,27.63
2018-07-28T17:30:53.434Z,27.70
2018-07-28T17:33:21.883Z,27.50
2018-07-28T17:35:50.068Z,27.32
2018-07-28T17:38:18.267Z,27.36
2018-07-28T17:40:47.238Z,27.41
2018-07-28T17:43:15.462Z,27.42
2018-07-28T17:45:44.231Z,27.33
2018-07-28T17:48:12.811Z,27.13
2018-07-28T17:50:41.079Z,27.12
2018-07-28T17:53:16.028Z,27.00
2018-07-28T17:55:44.614Z,27.05
2018-07-28T17:58:12.917Z,26.92
2018-07-28T18:00:41.117Z,26.91
2018-07-28T18:03:09.559Z,26.97
2018-07-28T18:05:38.169Z,26.99
2018-07-28T18:08:06.408Z,27.06
2018-07-28T18:10:34.601Z,26.92
2018-07-28T18:13:03.046Z,26.95
2018-07-28T18:15:31.597Z,26.98
2018-07-28T18:17:59.835Z,27.00
2018-07-28T18:20:28.048Z,26.90
2018-07-28T18:22:56.628Z,26.98
2018-07-28T18:25:25.417Z,26.85
2018-07-28T18:27:54.401Z,26.88
2018-07-28T18:30:23.405Z,26.75
2018-07-28T18:32:52.242Z,26.81
2018-07-28T18:35:20.959Z,26.85
2018-07-28T18:37:49.143Z,26.77
2018-07-28T18:40:17.761Z,26.51
2018-07-28T18:42:45.971Z,26.39
2018-07-28T18:45:14.256Z,26.41
2018-07-28T18:47:42.499Z,26.31
2018-07-28T18:50:11.101Z,26.23
2018-07-28T18:52:39.836Z,26.21
2018-07-28T18:55:07.986Z,26.19
2018-07-28T18:57:36.311Z,26.14
2018-07-28T19:00:07.382Z,26.08
2018-07-28T19:02:36.076Z,26.05
2018-07-28T19:05:05.725Z,25.98
2018-07-28T19:07:34.964Z,25.95
2018-07-28T19:10:03.712Z,25.99
2018-07-28T19:12:37.537Z,26.02
2018-07-28T19:15:06.533Z,25.89
2018-07-28T19:17:40.473Z,25.78
2018-07-28T19:20:08.850Z,25.73
2018-07-28T19:22:42.943Z,25.65
2018-07-28T19:25:11.169Z,25.54
2018-07-28T19:27:42.346Z,25.56
2018-07-28T19:30:10.592Z,25.52
2018-07-28T19:32:38.836Z,25.52
2018-07-28T19:35:07.675Z,25.47
2018-07-28T19:37:36.676Z,25.52
2018-07-28T19:40:04.911Z,25.45
2018-07-28T19:42:38.707Z,25.47
2018-07-28T19:45:07.219Z,25.42
2018-07-28T19:47:35.428Z,25.28
2018-07-28T19:50:03.856Z,25.28
2018-07-28T19:52:32.023Z,25.30
2018-07-28T19:55:00.205Z,25.24
2018-07-28T19:57:29.873Z,25.14
2018-07-28T19:59:58.069Z,25.14
2018-07-28T20:02:26.286Z,24.99
2018-07-28T20:04:55.164Z,25.00
2018-07-28T20:07:23.642Z,24.96
2018-07-28T20:09:51.937Z,24.92
2018-07-28T20:12:20.454Z,24.89
2018-07-28T20:14:48.943Z,24.82
2018-07-28T20:17:17.477Z,24.68
2018-07-28T20:19:45.827Z,24.71
2018-07-28T20:22:14.108Z,24.70
2018-07-28T20:24:42.918Z,24.70
2018-07-28T20:27:11.597Z,24.68
2018-07-28T20:29:40.235Z,24.53
2018-07-28T20:32:08.966Z,24.56
2018-07-28T20:34:37.210Z,24.50
2018-07-28T20:37:06.339Z,24.47
2018-07-28T20:39:34.846Z,24.47
2018-07-28T20:42:03.425Z,24.35
2018-07-28T20:44:31.736Z,24.22
2018-07-28T20:47:00.024Z,24.31
2018-07-28T20:49:29.793Z,24.26
2018-07-28T20:51:58.012Z,24.14
2018-07-28T20:54:28.133Z,24.16
2018-07-28T20:56:56.591Z,24.20
2018-07-28T20:59:25.389Z,24.10
2018-07-28T21:01:54.155Z,24.03
2018-07-28T21:04:22.729Z,24.05
2018-07-28T21:06:51.181Z,23.96
2018-07-28T21:09:19.836Z,24.00
2018-07-28T21:11:48.429Z,23.88
2018-07-28T21:14:18.001Z,23.87
2018-07-28T21:16:46.253Z,23.90
2018-07-28T21:19:15.372Z,23.77
2018-07-28T21:21:44.168Z,23.78
2018-07-28T21:24:12.861Z,23.74
2018-07-28T21:26:41.096Z,23.76
2018-07-28T21:29:09.489Z,23.82
2018-07-28T21:31:37.632Z,23.83
2018-07-28T21:34:06.460Z,23.79
2018-07-28T21:36:35.009Z,23.65
2018-07-28T21:39:05.625Z,23.64
2018-07-28T21:41:35.452Z,23.58
2018-07-28T21:44:03.874Z,23.55
2018-07-28T21:46:32.074Z,23.66
2018-07-28T21:49:00.898Z,23.55
2018-07-28T21:51:29.410Z,23.60
2018-07-28T21:53:58.261Z,23.53
2018-07-28T21:56:27.865Z,23.57
2018-07-28T21:58:56.869Z,23.56
2018-07-28T22:01:25.063Z,23.57
2018-07-28T22:03:53.418Z,23.55
2018-07-28T22:06:21.754Z,23.53
2018-07-28T22:08:50.558Z,23.35
2018-07-28T22:11:18.863Z,23.28
2018-07-28T22:13:47.173Z,23.37
2018-07-28T22:16:17.358Z,23.42
2018-07-28T22:18:46.589Z,23.38
2018-07-28T22:21:14.933Z,23.50
2018-07-28T22:23:43.588Z,23.51
2018-07-28T22:26:11.848Z,23.53
2018-07-28T22:28:40.106Z,23.71
2018-07-28T22:31:08.275Z,23.79
2018-07-28T22:33:37.587Z,23.66
2018-07-28T22:36:05.787Z,23.61
2018-07-28T22:38:34.148Z,23.78
2018-07-28T22:41:02.610Z,23.85
2018-07-28T22:43:30.935Z,23.72
2018-07-28T22:45:59.468Z,23.79
2018-07-28T22:48:27.777Z,23.83
2018-07-28T22:50:56.340Z,23.85
2018-07-28T22:53:25.332Z,23.75
2018-07-28T22:55:53.529Z,23.68
2018-07-28T22:58:22.361Z,23.82
2018-07-28T23:00:50.931Z,23.79
2018-07-28T23:03:19.140Z,23.79
2018-07-28T23:05:47.707Z,23.76
2018-07-28T23:08:15.952Z,23.67
2018-07-28T23:10:44.287Z,23.62
2018-07-28T23:13:12.535Z,23.54
2018-07-28T23:15:40.796Z,23.55
2018-07-28T23:18:09.060Z,23.40
2018-07-28T23:20:37.315Z,23.32
2018-07-28T23:23:05.574Z,23.34
2018-07-28T23:25:33.851Z,23.23
2018-07-28T23:28:02.300Z,23.26
2018-07-28T23:30:30.866Z,23.25
2018-07-28T23:32:59.067Z,23.26
2018-07-28T23:35:27.337Z,23.35
2018-07-28T23:37:55.609Z,23.27
2018-07-28T23:40:24.449Z,23.14
2018-07-28T23:42:52.726Z,23.09
2018-07-28T23:45:20.912Z,23.00
2018-07-28T23:47:49.301Z,23.18
2018-07-28T23:50:17.613Z,23.12
2018-07-28T23:52:46.426Z,23.11
2018-07-28T23:55:14.661Z,23.01
2018-07-28T23:57:43.252Z,22.98
